createdAt,value
2018-01-15T00:00:47.012Z,95100.28
2018-01-15T00:03:15.387Z,95097.98
2018-01-15T00:05:43.744Z,95105.91
2018-01-15T00:08:12.110Z,95104.62
2018-01-15T00:10:40.475Z,95104.66
2018-01-15T00:13:08.838Z,95084.96
2018-01-15T00:15:37.231Z,95086.71
2018-01-15T00:18:05.584Z,95089.52
2018-01-15T00:20:33.952Z,95086.47
2018-01-15T00:23:02.335Z,95087.59
2018-01-15T00:25:30.688Z,95086.80
2018-01-15T00:27:59.078Z,95074.80
2018-01-15T00:30:27.467Z,95069.66
2018-01-15T00:32:55.810Z,95058.83
2018-01-15T00:35:24.172Z,95052.00
2018-01-15T00:37:52.541Z,95050.04
2018-01-15T00:40:21.024Z,95049.35
2018-01-15T00:42:49.430Z,95045.53
2018-01-15T00:45:17.772Z,95034.19
2018-01-15T00:47:46.129Z,95027.17
2018-01-15T00:50:14.494Z,95025.48
2018-01-15T00:52:42.886Z,95026.98
2018-01-15T00:55:11.252Z,95026.79
2018-01-15T00:57:39.621Z,95014.68
2018-01-15T01:00:07.972Z,95005.89
2018-01-15T01:02:36.344Z,95002.48
2018-01-15T01:05:04.692Z,95008.25
2018-01-15T01:07:33.093Z,95004.06
2018-01-15T01:10:01.460Z,94999.72
2018-01-15T01:12:29.828Z,94979.80
2018-01-15T01:14:58.306Z,94981.23
2018-01-15T01:17:26.655Z,94978.73
2018-01-15T01:19:55.045Z,94992.11
2018-01-15T01:22:23.404Z,94984.03
2018-01-15T01:24:51.762Z,94978.20
2018-01-15T01:27:20.119Z,94977.28
2018-01-15T01:29:48.477Z,94971.89
2018-01-15T01:32:16.879Z,94970.25
2018-01-15T01:34:45.230Z,94963.42
2018-01-15T01:37:13.603Z,94969.63
2018-01-15T01:39:41.983Z,94965.48
2018-01-15T01:42:10.335Z,94961.77
2018-01-15T01:44:38.748Z,94957.45
2018-01-15T01:47:07.101Z,94963.44
2018-01-15T01:49:35.450Z,94967.85
2018-01-15T01:52:03.808Z,94959.78
2018-01-15T01:54:32.167Z,94948.28
2018-01-15T01:57:00.656Z,94962.25
2018-01-15T01:59:29.046Z,94966.05
2018-01-15T02:01:57.399Z,94964.31
2018-01-15T02:04:25.805Z,94967.79
2018-01-15T02:06:54.149Z,94959.57
2018-01-15T02:09:22.533Z,94965.66
2018-01-15T02:11:50.898Z,94960.31
2018-01-15T02:14:19.252Z,94955.54
2018-01-15T02:16:47.613Z,94960.75
2018-01-15T02:19:16.007Z,94954.91
2018-01-15T02:21:44.388Z,94962.33
2018-01-15T02:24:12.760Z,94959.31
2018-01-15T02:26:41.115Z,94958.89
2018-01-15T02:29:09.524Z,94957.66
2018-01-15T02:31:37.850Z,94956.95
2018-01-15T02:34:06.228Z,94951.38
2018-01-15T02:36:34.610Z,94948.47
2018-01-15T02:39:02.961Z,94950.75
2018-01-15T02:41:31.317Z,94947.73
2018-01-15T02:43:59.665Z,94946.05
2018-01-15T02:46:28.022Z,94939.66
2018-01-15T02:48:56.459Z,94927.72
2018-01-15T02:51:24.824Z,94926.12
2018-01-15T02:53:53.190Z,94924.77
2018-01-15T02:56:21.541Z,94920.86
2018-01-15T02:58:49.902Z,94913.88
2018-01-15T03:01:18.294Z,94911.20
2018-01-15T03:03:46.654Z,94904.69
2018-01-15T03:06:15.008Z,94896.27
2018-01-15T03:08:43.362Z,94895.56
2018-01-15T03:11:11.713Z,94887.68
2018-01-15T03:13:40.113Z,94884.97
2018-01-15T03:16:08.467Z,94884.83
2018-01-15T03:18:36.835Z,94881.05
2018-01-15T03:21:05.236Z,94877.41
2018-01-15T03:23:33.642Z,94872.54
2018-01-15T03:26:02.021Z,94876.47
2018-01-15T03:28:30.386Z,94870.09
2018-01-15T03:30:58.816Z,94871.48
2018-01-15T03:33:27.197Z,94857.94
2018-01-15T03:35:55.543Z,94864.08
2018-01-15T03:38:23.939Z,94859.08
2018-01-15T03:40:52.313Z,94854.48
2018-01-15T03:43:20.694Z,94845.23
2018-01-15T03:45:49.054Z,94841.77
2018-01-15T03:48:17.423Z,94841.17
2018-01-15T03:50:45.790Z,94834.34
2018-01-15T03:53:14.151Z,94831.69
2018-01-15T03:55:42.503Z,94828.97
2018-01-15T03:58:10.878Z,94826.28
2018-01-15T04:00:39.235Z,94821.64
2018-01-15T04:03:07.640Z,94811.51
2018-01-15T04:05:35.996Z,94813.41
2018-01-15T04:08:04.355Z,94811.00
2018-01-15T04:10:32.806Z,94809.16
2018-01-15T04:13:01.148Z,94804.09
2018-01-15T04:15:29.502Z,94803.62
2018-01-15T04:17:57.851Z,94797.34
2018-01-15T04:20:26.211Z,94792.98
2018-01-15T04:22:54.614Z,94790.49
2018-01-15T04:25:22.970Z,94788.61
2018-01-15T04:27:51.455Z,94778.73
2018-01-15T04:30:19.831Z,94786.08
2018-01-15T04:32:48.188Z,94778.64
2018-01-15T04:35:16.577Z,94773.13
2018-01-15T04:37:44.945Z,94776.20
2018-01-15T04:40:13.303Z,94770.28
2018-01-15T04:42:41.653Z,94773.67
2018-01-15T04:45:10.012Z,94771.61
2018-01-15T04:47:38.494Z,94764.91
2018-01-15T04:50:06.851Z,94771.01
2018-01-15T04:52:35.251Z,94760.92
2018-01-15T04:55:03.607Z,94759.88
2018-01-15T04:57:31.966Z,94757.33
2018-01-15T05:00:00.351Z,94753.14
2018-01-15T05:02:28.746Z,94746.92
2018-01-15T05:04:57.113Z,94743.44
2018-01-15T05:07:25.474Z,94743.05
2018-01-15T05:09:53.831Z,94735.67
2018-01-15T05:12:22.212Z,94740.43
2018-01-15T05:14:50.578Z,94733.72
2018-01-15T05:17:18.939Z,94727.67
2018-01-15T05:19:47.283Z,94722.86
2018-01-15T05:22:15.642Z,94718.53
2018-01-15T05:24:44.004Z,94714.94
2018-01-15T05:27:12.386Z,94716.04
2018-01-15T05:29:40.858Z,94713.69
2018-01-15T05:32:09.220Z,94712.16
2018-01-15T05:34:37.579Z,94703.00
2018-01-15T05:37:05.956Z,94709.87
2018-01-15T05:39:34.306Z,94708.03
2018-01-15T05:42:02.665Z,94699.79
2018-01-15T05:44:31.070Z,94694.92
2018-01-15T05:46:59.427Z,94689.66
2018-01-15T05:49:27.835Z,94691.30
2018-01-15T05:51:56.219Z,94695.39
2018-01-15T05:54:24.575Z,94699.92
2018-01-15T05:56:52.929Z,94694.30
2018-01-15T05:59:21.331Z,94681.06
2018-01-15T06:01:49.696Z,94679.43
2018-01-15T06:04:18.087Z,94684.41
2018-01-15T06:06:46.480Z,94687.81
2018-01-15T06:09:14.827Z,94686.10
2018-01-15T06:11:43.187Z,94675.64
2018-01-15T06:14:11.582Z,94675.95
2018-01-15T06:16:39.935Z,94679.53
2018-01-15T06:19:08.320Z,94680.35
2018-01-15T06:21:36.698Z,94668.95
2018-01-15T06:24:05.111Z,94654.95
2018-01-15T06:26:33.496Z,94652.93
2018-01-15T06:29:01.848Z,94654.25
2018-01-15T06:31:30.199Z,94656.63
2018-01-15T06:33:58.561Z,94646.88
2018-01-15T06:36:26.919Z,94643.73
2018-01-15T06:38:55.394Z,94651.07
2018-01-15T06:41:23.747Z,94652.41
2018-01-15T06:43:52.114Z,94649.04
2018-01-15T06:46:20.485Z,94646.77
2018-01-15T06:48:48.852Z,94646.61
2018-01-15T06:51:17.260Z,94651.81
2018-01-15T06:53:45.639Z,94631.09
2018-01-15T06:56:14.148Z,94630.79
2018-01-15T06:58:42.506Z,94636.45
2018-01-15T07:01:28.097Z,94624.38
2018-01-15T07:03:56.447Z,94632.31
2018-01-15T07:06:25.038Z,94621.14
2018-01-15T07:08:53.389Z,94628.76
2018-01-15T07:11:21.806Z,94622.92
2018-01-15T07:13:50.183Z,94624.27
2018-01-15T07:16:18.540Z,94613.33
2018-01-15T07:18:46.908Z,94616.26
2018-01-15T07:21:15.361Z,94607.58
2018-01-15T07:23:43.770Z,94609.96
2018-01-15T07:26:12.143Z,94600.97
2018-01-15T07:28:40.508Z,94601.52
2018-01-15T07:31:08.984Z,94601.59
2018-01-15T07:33:37.363Z,94593.20
2018-01-15T07:36:05.725Z,94599.92
2018-01-15T07:38:34.088Z,94596.74
2018-01-15T07:41:02.543Z,94605.08
2018-01-15T07:43:30.905Z,94589.05
2018-01-15T07:45:59.322Z,94595.96
2018-01-15T07:48:27.674Z,94581.13
2018-01-15T07:50:56.036Z,94579.80
2018-01-15T07:53:24.457Z,94576.65
2018-01-15T07:55:52.807Z,94576.52
2018-01-15T07:58:21.258Z,94584.36
2018-01-15T08:00:49.620Z,94576.00
2018-01-15T08:03:17.986Z,94576.02
2018-01-15T08:05:46.344Z,94569.44
2018-01-15T08:08:14.724Z,94567.31
2018-01-15T08:10:43.118Z,94558.42
2018-01-15T08:13:11.637Z,94567.87
2018-01-15T08:15:39.998Z,94559.53
2018-01-15T08:18:08.367Z,94573.10
2018-01-15T08:20:36.730Z,94564.86
2018-01-15T08:23:05.112Z,94561.09
2018-01-15T08:25:33.465Z,94565.30
2018-01-15T08:28:01.815Z,94547.47
2018-01-15T08:30:30.180Z,94558.19
2018-01-15T08:32:58.560Z,94547.55
2018-01-15T08:35:26.959Z,94543.55
2018-01-15T08:37:55.345Z,94542.06
2018-01-15T08:40:23.705Z,94535.20
2018-01-15T08:42:52.082Z,94539.99
2018-01-15T08:45:20.465Z,94525.06
2018-01-15T08:47:48.835Z,94522.64
2018-01-15T08:50:17.205Z,94515.05
2018-01-15T08:52:45.640Z,94518.80
2018-01-15T08:55:14.024Z,94515.34
2018-01-15T08:57:42.443Z,94510.27
2018-01-15T09:00:10.834Z,94503.34
2018-01-15T09:02:39.233Z,94500.97
2018-01-15T09:05:07.603Z,94499.14
2018-01-15T09:07:35.964Z,94499.61
2018-01-15T09:10:04.343Z,94488.50
2018-01-15T09:12:32.742Z,94487.32
2018-01-15T09:15:01.149Z,94489.87
2018-01-15T09:17:29.528Z,94480.16
2018-01-15T09:19:57.883Z,94479.11
2018-01-15T09:22:26.242Z,94472.48
2018-01-15T09:24:54.663Z,94477.09
2018-01-15T09:27:23.014Z,94478.06
2018-01-15T09:29:51.470Z,94473.98
2018-01-15T09:32:19.836Z,94463.15
2018-01-15T09:34:48.196Z,94463.34
2018-01-15T09:37:16.559Z,94465.83
2018-01-15T09:39:44.936Z,94461.85
2018-01-15T09:42:13.313Z,94467.53
2018-01-15T09:44:41.831Z,94465.57
2018-01-15T09:47:10.214Z,94465.81
2018-01-15T09:49:38.572Z,94453.13
2018-01-15T09:52:06.995Z,94452.57
2018-01-15T09:54:35.357Z,94440.28
2018-01-15T09:57:03.736Z,94442.80
2018-01-15T09:59:32.130Z,94444.45
2018-01-15T10:02:00.496Z,94444.66
2018-01-15T10:04:28.902Z,94447.37
2018-01-15T10:06:57.263Z,94437.27
2018-01-15T10:09:25.633Z,94428.64
2018-01-15T10:11:54.022Z,94427.35
2018-01-15T10:14:22.422Z,94427.09
2018-01-15T10:16:50.782Z,94419.45
2018-01-15T10:19:19.180Z,94409.49
2018-01-15T10:21:47.552Z,94400.98
2018-01-15T10:24:15.915Z,94402.19
2018-01-15T10:26:44.309Z,94386.73
2018-01-15T10:29:12.764Z,94375.11
2018-01-15T10:31:41.240Z,94385.27
2018-01-15T10:34:09.603Z,94379.31
2018-01-15T10:36:38.016Z,94379.70
2018-01-15T10:39:06.407Z,94372.75
2018-01-15T10:41:34.771Z,94362.92
2018-01-15T10:44:03.159Z,94355.25
2018-01-15T10:46:31.553Z,94334.20
2018-01-15T10:48:59.930Z,94332.73
2018-01-15T10:51:28.289Z,94332.94
2018-01-15T10:53:56.656Z,94325.13
2018-01-15T10:56:25.040Z,94324.11
2018-01-15T10:58:53.430Z,94305.31
2018-01-15T11:01:27.504Z,94304.38
2018-01-15T11:03:55.942Z,94305.23
2018-01-15T11:06:25.164Z,94298.23
2018-01-15T11:08:53.529Z,94285.55
2018-01-15T11:11:21.925Z,94285.91
2018-01-15T11:13:50.267Z,94274.33
2018-01-15T11:16:18.641Z,94278.50
2018-01-15T11:18:47.055Z,94267.80
2018-01-15T11:21:15.611Z,94277.58
2018-01-15T11:23:44.043Z,94259.52
2018-01-15T11:26:12.500Z,94259.98
2018-01-15T11:28:40.863Z,94254.89
2018-01-15T11:31:09.222Z,94245.95
2018-01-15T11:33:37.598Z,94252.48
2018-01-15T11:36:05.964Z,94239.64
2018-01-15T11:38:34.322Z,94242.15
2018-01-15T11:41:02.715Z,94230.63
2018-01-15T11:43:31.087Z,94213.34
2018-01-15T11:45:59.468Z,94225.09
2018-01-15T11:48:27.846Z,94207.67
2018-01-15T11:50:56.215Z,94203.47
2018-01-15T11:53:24.596Z,94195.67
2018-01-15T11:55:52.984Z,94196.33
2018-01-15T11:58:21.368Z,94173.22
2018-01-15T12:00:49.777Z,94177.02
2018-01-15T12:03:18.144Z,94164.84
2018-01-15T12:05:46.495Z,94144.56
2018-01-15T12:08:14.915Z,94148.66
2018-01-15T12:10:43.275Z,94129.17
2018-01-15T12:13:11.667Z,94141.78
2018-01-15T12:15:40.157Z,94119.53
2018-01-15T12:18:08.514Z,94120.56
2018-01-15T12:20:36.881Z,94105.99
2018-01-15T12:23:05.290Z,94106.26
2018-01-15T12:25:33.666Z,94104.20
2018-01-15T12:28:02.028Z,94109.87
2018-01-15T12:30:30.398Z,94082.45
2018-01-15T12:32:58.771Z,94083.84
2018-01-15T12:35:27.141Z,94079.27
2018-01-15T12:37:55.505Z,94063.95
2018-01-15T12:40:23.894Z,94057.97
2018-01-15T12:42:52.279Z,94044.91
2018-01-15T12:45:20.635Z,94045.06
2018-01-15T12:47:49.020Z,94039.63
2018-01-15T12:50:17.580Z,94025.05
2018-01-15T12:52:45.952Z,94024.19
2018-01-15T12:55:14.321Z,94013.45
2018-01-15T12:57:42.724Z,94000.16
2018-01-15T13:02:46.235Z,94000.68
2018-01-15T13:05:14.777Z,94002.37
2018-01-15T13:07:54.867Z,93984.16
2018-01-15T13:10:23.251Z,93981.89
2018-01-15T13:12:51.667Z,93970.45
2018-01-15T13:15:20.028Z,93944.94
2018-01-15T13:17:48.385Z,93944.89
2018-01-15T13:20:16.879Z,93932.25
2018-01-15T13:22:45.380Z,93928.48
2018-01-15T13:25:14.090Z,93917.64
2018-01-15T13:27:44.282Z,93910.39
2018-01-15T13:30:12.701Z,93906.72
2018-01-15T13:32:42.277Z,93899.25
2018-01-15T13:35:11.617Z,93900.59
2018-01-15T13:37:41.810Z,93881.27
2018-01-15T13:40:10.170Z,93884.73
2018-01-15T13:42:38.711Z,93873.98
2018-01-15T13:45:07.074Z,93856.95
2018-01-15T13:47:35.448Z,93851.17
2018-01-15T13:50:03.818Z,93847.12
2018-01-15T13:52:32.193Z,93850.12
2018-01-15T13:55:00.570Z,93837.10
2018-01-15T13:57:28.930Z,93817.45
2018-01-15T13:59:57.376Z,93818.55
2018-01-15T14:02:25.739Z,93817.50
2018-01-15T14:04:54.121Z,93802.51
2018-01-15T14:07:22.526Z,93799.47
2018-01-15T14:09:50.883Z,93790.09
2018-01-15T14:12:19.252Z,93775.34
2018-01-15T14:14:47.626Z,93765.92
2018-01-15T14:17:15.984Z,93764.03
2018-01-15T14:19:44.391Z,93748.18
2018-01-15T14:22:12.808Z,93748.30
2018-01-15T14:24:41.174Z,93745.31
2018-01-15T14:27:09.533Z,93734.25
2018-01-15T14:29:37.900Z,93722.41
2018-01-15T14:32:06.291Z,93717.20
2018-01-15T14:34:34.677Z,93720.35
2018-01-15T14:37:03.048Z,93728.59
2018-01-15T14:39:31.445Z,93718.17
2018-01-15T14:41:59.810Z,93719.22
2018-01-15T14:44:30.434Z,93709.48
2018-01-15T14:46:58.817Z,93696.19
2018-01-15T14:49:27.182Z,93698.13
2018-01-15T14:51:55.559Z,93697.98
2018-01-15T14:54:23.931Z,93685.66
2018-01-15T14:56:52.451Z,93694.53
2018-01-15T14:59:20.812Z,93703.73
2018-01-15T15:01:49.183Z,93688.95
2018-01-15T15:04:17.687Z,93668.59
2018-01-15T15:06:46.058Z,93668.06
2018-01-15T15:09:14.478Z,93662.13
2018-01-15T15:11:42.863Z,93661.52
2018-01-15T15:14:11.261Z,93657.17
2018-01-15T15:16:39.999Z,93648.39
2018-01-15T15:19:11.995Z,93650.24
2018-01-15T15:21:40.698Z,93648.95
2018-01-15T15:24:09.066Z,93634.45
2018-01-15T15:26:37.464Z,93618.48
2018-01-15T15:29:05.841Z,93628.56
2018-01-15T15:31:36.086Z,93603.64
2018-01-15T15:34:05.431Z,93591.57
2018-01-15T15:36:33.795Z,93585.75
2018-01-15T15:42:11.498Z,93564.41
2018-01-15T15:47:37.131Z,93557.36
2018-01-15T15:50:05.705Z,93563.78
2018-01-15T15:52:34.130Z,93542.70
2018-01-15T15:55:02.583Z,93535.86
2018-01-15T15:57:30.963Z,93541.27
2018-01-15T16:00:10.988Z,93515.72
2018-01-15T16:02:39.861Z,93512.16
2018-01-15T16:05:08.216Z,93517.44
2018-01-15T16:07:36.739Z,93505.64
2018-01-15T16:10:05.142Z,93499.59
2018-01-15T16:12:34.439Z,93490.97
2018-01-15T16:15:03.233Z,93490.17
2018-01-15T16:17:33.157Z,93467.46
2018-01-15T16:20:04.859Z,93472.48
2018-01-15T16:22:36.805Z,93452.64
2018-01-15T16:25:06.669Z,93442.75
2018-01-15T16:27:35.167Z,93450.41
2018-01-15T16:30:03.526Z,93441.44
2018-01-15T16:32:31.918Z,93433.77
2018-01-15T16:35:00.283Z,93405.60
2018-01-15T16:37:29.929Z,93416.83
2018-01-15T16:39:58.374Z,93403.56
2018-01-15T16:42:26.732Z,93393.27
2018-01-15T16:44:55.205Z,93390.19
2018-01-15T16:47:23.555Z,93374.40
2018-01-15T16:49:52.035Z,93386.97
2018-01-15T16:52:20.392Z,93376.05
2018-01-15T16:54:48.751Z,93368.23
2018-01-15T16:57:17.116Z,93368.34
2018-01-15T16:59:45.477Z,93349.45
2018-01-15T17:02:13.884Z,93337.48
2018-01-15T17:04:42.235Z,93329.42
2018-01-15T17:07:10.621Z,93310.20
2018-01-15T17:09:39.265Z,93292.17
2018-01-15T17:12:07.658Z,93280.87
2018-01-15T17:14:36.272Z,93271.58
2018-01-15T17:17:04.647Z,93270.66
2018-01-15T17:19:33.059Z,93257.52
2018-01-15T17:22:01.411Z,93249.75
2018-01-15T17:24:29.853Z,93257.86
2018-01-15T17:26:58.235Z,93242.13
2018-01-15T17:29:26.647Z,93242.78
2018-01-15T17:31:55.105Z,93245.05
2018-01-15T17:34:23.458Z,93225.86
2018-01-15T17:37:10.326Z,93206.56
2018-01-15T17:39:38.711Z,93195.78
2018-01-15T17:42:07.071Z,93181.22
2018-01-15T17:44:35.422Z,93177.41
2018-01-15T17:47:07.098Z,93168.45
2018-01-15T17:49:35.442Z,93168.94
2018-01-15T17:52:03.871Z,93170.75
2018-01-15T17:54:32.252Z,93168.89
2018-01-15T17:57:00.664Z,93168.15
2018-01-15T17:59:32.412Z,93154.13
2018-01-15T18:02:00.969Z,93153.88
2018-01-15T18:04:29.471Z,93142.72
2018-01-15T18:06:57.921Z,93138.95
2018-01-15T18:09:26.686Z,93139.98
2018-01-15T18:15:22.506Z,93127.80
2018-01-15T18:17:52.126Z,93136.63
2018-01-15T18:20:20.516Z,93126.00
2018-01-15T18:22:49.027Z,93114.42
2018-01-15T18:25:17.382Z,93109.15
2018-01-15T18:27:45.736Z,93104.59
2018-01-15T18:30:14.107Z,93106.13
2018-01-15T18:32:42.476Z,93101.36
2018-01-15T18:35:17.530Z,93086.74
2018-01-15T18:37:45.928Z,93092.51
2018-01-15T18:40:14.300Z,93067.89
2018-01-15T18:42:42.685Z,93071.95
2018-01-15T18:45:11.039Z,93055.87
2018-01-15T18:47:39.399Z,93052.69
2018-01-15T18:50:07.757Z,93052.09
2018-01-15T18:52:36.106Z,93046.57
2018-01-15T18:55:04.627Z,93027.02
2018-01-15T18:57:33.146Z,93034.29
2018-01-15T19:00:01.513Z,93037.58
2018-01-15T19:02:29.870Z,93021.77
2018-01-15T19:04:58.248Z,93016.85
2018-01-15T19:07:30.587Z,93020.08
2018-01-15T19:09:58.943Z,93004.19
2018-01-15T19:12:27.302Z,93008.69
2018-01-15T19:14:55.675Z,92991.87
2018-01-15T19:17:25.932Z,92994.14
2018-01-15T19:19:54.347Z,92975.35
2018-01-15T19:22:22.762Z,92961.27
2018-01-15T19:24:51.160Z,92956.84
2018-01-15T19:27:19.511Z,92938.95
2018-01-15T19:29:47.874Z,92956.20
2018-01-15T19:32:16.229Z,92949.95
2018-01-15T19:34:50.081Z,92940.35
2018-01-15T19:37:28.104Z,92925.47
2018-01-15T19:40:00.569Z,92932.73
2018-01-15T19:42:28.955Z,92923.98
2018-01-15T19:45:02.851Z,92912.41
2018-01-15T19:47:44.603Z,92909.85
2018-01-15T19:50:20.489Z,92909.84
2018-01-15T19:52:55.894Z,92914.65
2018-01-15T19:55:32.439Z,92902.83
2018-01-15T19:58:09.260Z,92900.14
2018-01-15T20:03:30.813Z,92892.45
2018-01-15T20:06:04.643Z,92880.71
2018-01-15T20:08:38.689Z,92864.49
2018-01-15T20:11:07.087Z,92874.83
2018-01-15T20:13:53.333Z,92872.19
2018-01-15T20:16:21.746Z,92862.45
2018-01-15T20:18:59.982Z,92858.34
2018-01-15T20:21:28.361Z,92869.42
2018-01-15T20:23:56.871Z,92860.48
2018-01-15T20:26:25.245Z,92855.34
2018-01-15T20:28:54.507Z,92855.05
2018-01-15T20:31:22.896Z,92849.30
2018-01-15T20:33:51.294Z,92821.15
2018-01-15T20:36:19.649Z,92833.56
2018-01-15T20:38:48.063Z,92818.89
2018-01-15T20:41:16.427Z,92810.53
2018-01-15T20:43:44.833Z,92814.37
2018-01-15T20:46:13.236Z,92803.45
2018-01-15T20:48:41.806Z,92814.92
2018-01-15T20:51:10.166Z,92803.06
2018-01-15T20:53:38.520Z,92794.62
2018-01-15T20:56:06.908Z,92786.14
2018-01-15T20:58:35.307Z,92786.78
2018-01-15T21:01:03.731Z,92789.57
2018-01-15T21:03:32.091Z,92786.97
2018-01-15T21:06:00.458Z,92777.48
2018-01-15T21:08:28.856Z,92777.07
2018-01-15T21:10:57.275Z,92769.59
2018-01-15T21:13:25.647Z,92761.60
2018-01-15T21:15:54.970Z,92758.70
2018-01-15T21:18:24.264Z,92751.26
2018-01-15T21:20:52.750Z,92748.69
2018-01-15T21:23:21.111Z,92747.51
2018-01-15T21:25:49.495Z,92751.45
2018-01-15T21:28:18.131Z,92736.99
2018-01-15T21:30:46.475Z,92729.03
2018-01-15T21:33:14.831Z,92713.63
2018-01-15T21:35:43.202Z,92727.58
2018-01-15T21:38:11.590Z,92719.33
2018-01-15T21:40:39.944Z,92725.09
2018-01-15T21:43:08.314Z,92724.19
2018-01-15T21:45:36.675Z,92720.34
2018-01-15T21:48:05.030Z,92715.13
2018-01-15T21:50:33.451Z,92699.77
2018-01-15T21:53:01.800Z,92715.23
2018-01-15T21:55:30.186Z,92707.84
2018-01-15T21:57:58.547Z,92704.52
2018-01-15T22:00:26.935Z,92713.45
2018-01-15T22:02:55.290Z,92692.73
2018-01-15T22:05:23.647Z,92690.17
2018-01-15T22:07:52.022Z,92695.76
2018-01-15T22:10:20.367Z,92700.08
2018-01-15T22:12:48.745Z,92701.45
2018-01-15T22:15:17.091Z,92702.33
2018-01-15T22:17:45.455Z,92704.51
2018-01-15T22:20:13.819Z,92694.81
2018-01-15T22:22:42.216Z,92702.59
2018-01-15T22:25:10.613Z,92698.46
2018-01-15T22:27:38.958Z,92693.20
2018-01-15T22:30:07.315Z,92689.68
2018-01-15T22:32:35.677Z,92698.52
2018-01-15T22:35:04.121Z,92694.28
2018-01-15T22:37:32.522Z,92689.84
2018-01-15T22:40:00.868Z,92692.46
2018-01-15T22:42:29.226Z,92690.16
2018-01-15T22:44:57.603Z,92696.90
2018-01-15T22:47:25.970Z,92696.10
2018-01-15T22:49:54.357Z,92689.75
2018-01-15T22:52:22.710Z,92695.44
2018-01-15T22:54:51.063Z,92702.17
2018-01-15T22:57:19.426Z,92694.48
2018-01-15T22:59:47.783Z,92685.39
2018-01-15T23:02:16.169Z,92684.80
2018-01-15T23:04:44.520Z,92690.89
2018-01-15T23:07:12.998Z,92686.34
2018-01-15T23:09:41.347Z,92685.94
2018-01-15T23:12:09.710Z,92682.04
2018-01-15T23:14:38.060Z,92689.87
2018-01-15T23:17:06.415Z,92691.02
2018-01-15T23:19:34.790Z,92688.49
2018-01-15T23:22:03.147Z,92694.78
2018-01-15T23:24:31.505Z,92688.63
2018-01-15T23:26:59.846Z,92677.72
2018-01-15T23:29:28.215Z,92677.69
2018-01-15T23:31:56.594Z,92668.31
2018-01-15T23:34:24.943Z,92665.97
2018-01-15T23:36:53.293Z,92664.08
2018-01-15T23:39:21.639Z,92675.53
2018-01-15T23:41:49.994Z,92680.39
2018-01-15T23:44:18.395Z,92679.85
2018-01-15T23:46:46.743Z,92679.23
2018-01-15T23:49:15.082Z,92687.55
2018-01-15T23:51:43.466Z,92678.06
2018-01-15T23:54:23.554Z,92671.38
2018-01-15T23:56:51.942Z,92665.97
2018-01-15T23:59:20.304Z,92670.21
